Aviation Digital Data Service (ADDS)

Output produced by METARs form (1401 UTC 21 April 2021)
found at http://www.aviationweather.gov/metar/data/
 
METAR text: EBBR 211350Z 02008KT 350V050 9999 FEW049 16/05 Q1018 NOSIG
Conditions at: EBBR (BRUSSELS NATIONA, BE) observed 1350 UTC 21 April 2021
Temperature: 16.0°C (61°F)
Dewpoint: 5.0°C (41°F) [RH = 48%]
Pressure (altimeter): 30.06 inches Hg (1018.0 mb)
Winds: from the NNE (20 degrees) at 9 MPH (8 knots; 4.1 m/s)
Visibility: 6 or more miles (10+ km)
Ceiling: at least 12,000 feet AGL
Clouds: few clouds at 4900 feet AGL
Weather: no significant weather observed at this time

Forecast for: EBBR (BRUSSELS NATIONA, BE)
Text: TAF EBBR 211100Z 2112/2218 03009KT 9999 SCT040
Forecast period: 1200 UTC 21 April 2021 to 1800 UTC 22 April 2021
Forecast type: FROM: standard forecast or significant change
Winds: from the NNE (30 degrees) at 10 MPH (9 knots; 4.6 m/s)
Visibility: 6 or more miles (10+ km)
Ceiling: at least 12,000 feet AGL
Clouds: scattered clouds at 4000 feet AGL
Weather: no significant weather forecast for this period